createdAt,value
2019-03-06T00:01:09.654Z,12.37
2019-03-06T00:03:41.229Z,12.13
2019-03-06T00:06:16.647Z,13.30
2019-03-06T00:08:43.798Z,9.97
2019-03-06T00:11:18.025Z,11.87
2019-03-06T00:13:51.199Z,10.47
2019-03-06T00:16:21.396Z,10.23
2019-03-06T00:18:51.804Z,13.20
2019-03-06T00:21:22.390Z,14.40
2019-03-06T00:23:52.839Z,12.30
2019-03-06T00:26:23.138Z,10.27
2019-03-06T00:28:53.399Z,10.40
2019-03-06T00:31:23.528Z,11.27
2019-03-06T00:33:54.061Z,11.20
2019-03-06T00:36:26.594Z,12.80
2019-03-06T00:38:56.888Z,11.03
2019-03-06T00:41:36.973Z,10.20
2019-03-06T00:44:07.183Z,9.00
2019-03-06T00:46:37.407Z,9.70
2019-03-06T00:49:07.820Z,11.08
2019-03-06T00:51:38.029Z,12.13
2019-03-06T00:54:09.618Z,11.75
2019-03-06T00:56:40.046Z,12.10
2019-03-06T00:59:13.432Z,10.60
2019-03-06T01:01:43.770Z,11.40
2019-03-06T01:04:14.860Z,10.43
2019-03-06T01:06:45.011Z,10.00
2019-03-06T01:09:18.213Z,10.67
2019-03-06T01:11:50.718Z,9.53
2019-03-06T01:14:21.085Z,9.93
2019-03-06T01:16:51.338Z,10.17
2019-03-06T01:19:23.781Z,11.80
2019-03-06T01:21:53.938Z,10.30
2019-03-06T01:24:24.173Z,9.20
2019-03-06T01:26:54.989Z,11.67
2019-03-06T01:29:26.278Z,11.20
2019-03-06T01:31:56.652Z,10.43
2019-03-06T01:34:48.560Z,11.10
2019-03-06T01:37:24.099Z,11.30
2019-03-06T01:40:07.235Z,8.40
2019-03-06T01:42:45.484Z,8.17
2019-03-06T01:45:16.058Z,9.60
2019-03-06T01:47:46.342Z,9.33
2019-03-06T01:50:16.616Z,10.60
2019-03-06T01:52:47.190Z,10.43
2019-03-06T01:55:17.525Z,8.70
2019-03-06T01:57:47.689Z,8.27
2019-03-06T02:00:19.104Z,9.00
2019-03-06T02:02:49.602Z,9.13
2019-03-06T02:05:19.893Z,10.67
2019-03-06T02:07:50.077Z,8.60
2019-03-06T02:10:20.475Z,14.17
2019-03-06T02:12:52.604Z,9.60
2019-03-06T02:15:23.285Z,11.87
2019-03-06T02:17:53.655Z,13.00
2019-03-06T02:20:24.311Z,11.87
2019-03-06T02:22:54.512Z,11.57
2019-03-06T02:25:25.142Z,11.20
2019-03-06T02:27:55.586Z,11.60
2019-03-06T02:30:25.886Z,11.17
2019-03-06T02:32:59.028Z,12.90
2019-03-06T02:35:29.400Z,9.17
2019-03-06T02:38:03.025Z,10.30
2019-03-06T02:40:33.616Z,10.20
2019-03-06T02:43:04.223Z,9.43
2019-03-06T02:45:34.648Z,12.95
2019-03-06T02:48:06.722Z,9.47
2019-03-06T02:50:36.944Z,10.73
2019-03-06T02:53:07.169Z,10.10
2019-03-06T02:55:38.497Z,9.23
2019-03-06T02:58:39.636Z,8.50
2019-03-06T03:01:22.445Z,7.80
2019-03-06T03:04:12.093Z,10.13
2019-03-06T03:06:49.212Z,8.73
2019-03-06T03:09:20.439Z,8.10
2019-03-06T03:11:50.929Z,9.33
2019-03-06T03:14:21.576Z,7.93
2019-03-06T03:16:52.325Z,6.83
2019-03-06T03:19:22.573Z,10.50
2019-03-06T03:21:52.927Z,7.67
2019-03-06T03:24:23.617Z,8.37
2019-03-06T03:26:54.040Z,7.33
2019-03-06T03:29:24.434Z,7.93
2019-03-06T03:31:54.575Z,8.10
2019-03-06T03:34:25.100Z,8.23
2019-03-06T03:36:55.650Z,8.07
2019-03-06T03:39:26.120Z,9.10
2019-03-06T03:41:56.279Z,6.10
2019-03-06T03:44:26.451Z,5.97
2019-03-06T03:46:56.571Z,6.15
2019-03-06T03:49:27.891Z,6.10
2019-03-06T03:51:58.114Z,6.20
2019-03-06T03:54:28.357Z,5.00
2019-03-06T03:56:59.900Z,5.40
2019-03-06T03:59:30.636Z,6.20
2019-03-06T04:02:03.306Z,4.50
2019-03-06T04:04:35.079Z,4.67
2019-03-06T04:07:05.803Z,4.50
2019-03-06T04:09:36.297Z,4.40
2019-03-06T04:12:06.591Z,5.47
2019-03-06T04:14:37.086Z,4.93
2019-03-06T04:17:07.440Z,5.17
2019-03-06T04:19:37.810Z,4.70
2019-03-06T04:22:08.379Z,5.57
2019-03-06T04:24:38.921Z,6.70
2019-03-06T04:27:09.439Z,6.13
2019-03-06T04:29:39.680Z,7.27
2019-03-06T04:32:09.952Z,6.33
2019-03-06T04:34:40.635Z,5.17
2019-03-06T04:37:11.100Z,6.70
2019-03-06T04:39:41.584Z,9.13
2019-03-06T04:42:11.848Z,7.12
2019-03-06T04:44:42.048Z,9.73
2019-03-06T04:47:12.225Z,9.27
2019-03-06T04:49:52.255Z,8.20
2019-03-06T04:52:16.158Z,7.20
2019-03-06T04:54:46.500Z,9.40
2019-03-06T04:57:19.730Z,7.00
2019-03-06T04:59:49.950Z,7.13
2019-03-06T05:02:22.408Z,4.60
2019-03-06T05:04:52.703Z,7.70
2019-03-06T05:07:23.109Z,6.50
2019-03-06T05:09:53.322Z,4.30
2019-03-06T05:12:23.496Z,4.87
2019-03-06T05:14:53.710Z,4.97
2019-03-06T05:17:46.282Z,7.70
2019-03-06T05:20:17.851Z,4.97
2019-03-06T05:22:51.904Z,6.23
2019-03-06T05:25:22.621Z,5.83
2019-03-06T05:27:55.700Z,6.83
2019-03-06T05:30:27.396Z,6.73
2019-03-06T05:32:59.614Z,4.70
2019-03-06T05:35:38.565Z,4.00
2019-03-06T05:38:22.289Z,4.27
2019-03-06T05:40:55.566Z,4.17
2019-03-06T05:43:25.715Z,3.70
2019-03-06T05:45:55.915Z,4.67
2019-03-06T05:48:26.136Z,3.47
2019-03-06T05:50:56.303Z,4.00
2019-03-06T05:53:26.469Z,5.13
2019-03-06T05:55:57.288Z,4.20
2019-03-06T05:58:29.730Z,6.60
2019-03-06T06:01:00.060Z,5.33
2019-03-06T06:03:32.884Z,3.90
2019-03-06T06:06:03.525Z,4.83
2019-03-06T06:08:34.047Z,3.53
2019-03-06T06:11:04.576Z,2.90
2019-03-06T06:13:36.498Z,3.57
2019-03-06T06:16:06.886Z,2.87
2019-03-06T06:18:37.116Z,3.47
2019-03-06T06:21:39.707Z,3.37
2019-03-06T06:24:17.539Z,3.17
2019-03-06T06:26:47.997Z,3.00
2019-03-06T06:29:18.379Z,5.67
2019-03-06T06:31:48.781Z,3.83
2019-03-06T06:34:19.499Z,3.40
2019-03-06T06:36:49.767Z,3.80
2019-03-06T06:39:20.405Z,3.12
2019-03-06T06:41:50.615Z,4.10
2019-03-06T06:44:23.735Z,5.60
2019-03-06T06:46:56.395Z,4.00
2019-03-06T06:49:26.630Z,4.70
2019-03-06T06:52:52.974Z,3.60
2019-03-06T06:55:50.758Z,3.80
2019-03-06T06:58:54.798Z,3.83
2019-03-06T07:02:31.323Z,3.03
2019-03-06T07:05:32.794Z,3.07
2019-03-06T07:08:22.306Z,2.93
2019-03-06T07:11:20.744Z,2.57
2019-03-06T07:14:00.856Z,2.43
2019-03-06T07:16:44.970Z,2.47
2019-03-06T07:19:32.731Z,2.30
2019-03-06T07:22:21.985Z,2.97
2019-03-06T07:25:17.409Z,3.13
2019-03-06T07:28:13.105Z,2.97
2019-03-06T07:30:59.984Z,2.63
2019-03-06T07:33:42.899Z,2.97
2019-03-06T07:36:33.749Z,2.43
2019-03-06T07:39:17.877Z,3.10
2019-03-06T07:42:16.842Z,2.40
2019-03-06T07:45:39.721Z,17.30
2019-03-06T07:48:35.176Z,4.03
2019-03-06T07:51:15.406Z,2.40
2019-03-06T07:54:20.837Z,2.43
2019-03-06T07:57:10.802Z,3.17
2019-03-06T07:59:41.149Z,3.27
2019-03-06T08:02:13.595Z,3.20
2019-03-06T08:04:53.133Z,2.97
2019-03-06T08:07:23.705Z,4.73
2019-03-06T08:09:54.740Z,3.50
2019-03-06T08:12:43.197Z,4.30
2019-03-06T08:15:42.136Z,5.90
2019-03-06T08:18:24.180Z,3.05
2019-03-06T08:21:12.802Z,2.43
2019-03-06T08:24:08.676Z,2.00
2019-03-06T08:26:38.990Z,2.60
2019-03-06T08:29:09.461Z,2.73
2019-03-06T08:32:00.837Z,1.77
2019-03-06T08:34:34.165Z,2.00
2019-03-06T08:37:06.130Z,2.20
2019-03-06T08:39:36.780Z,2.53
2019-03-06T08:42:07.176Z,4.27
2019-03-06T08:44:37.508Z,3.10
2019-03-06T08:47:25.526Z,6.13
2019-03-06T08:50:14.636Z,3.37
2019-03-06T08:53:09.854Z,8.30
2019-03-06T08:55:59.200Z,2.40
2019-03-06T08:58:54.281Z,2.60
2019-03-06T09:01:42.310Z,2.83
2019-03-06T09:04:23.062Z,3.20
2019-03-06T09:07:03.175Z,2.93
2019-03-06T09:09:53.497Z,3.30
2019-03-06T09:12:55.080Z,2.50
2019-03-06T09:15:47.190Z,2.30
2019-03-06T09:18:39.226Z,2.37
2019-03-06T09:21:34.520Z,1.70
2019-03-06T09:24:39.792Z,1.63
2019-03-06T09:27:31.177Z,1.87
2019-03-06T09:30:26.138Z,2.80
2019-03-06T09:33:12.914Z,1.60
2019-03-06T09:35:53.208Z,1.57
2019-03-06T09:39:03.470Z,1.40
2019-03-06T09:41:45.639Z,1.47
2019-03-06T09:44:37.592Z,1.10
2019-03-06T09:47:25.715Z,1.40
2019-03-06T09:50:09.889Z,1.50
2019-03-06T09:53:02.087Z,1.60
2019-03-06T09:55:51.372Z,1.30
2019-03-06T09:58:40.493Z,1.73
2019-03-06T10:01:35.735Z,1.70
2019-03-06T10:04:36.967Z,1.53
2019-03-06T10:07:25.149Z,1.70
2019-03-06T10:10:29.834Z,1.73
2019-03-06T10:13:18.017Z,1.77
2019-03-06T10:16:00.190Z,1.70
2019-03-06T10:18:48.121Z,1.87
2019-03-06T10:21:21.291Z,2.13
2019-03-06T10:23:51.672Z,1.60
2019-03-06T10:26:22.895Z,1.70
2019-03-06T10:28:53.050Z,1.43
2019-03-06T10:31:26.290Z,1.60
2019-03-06T10:33:56.502Z,1.80
2019-03-06T10:36:28.462Z,1.50
2019-03-06T10:38:58.755Z,1.33
2019-03-06T10:41:28.925Z,1.50
2019-03-06T10:43:59.063Z,1.53
2019-03-06T10:46:29.239Z,1.10
2019-03-06T10:49:00.071Z,1.30
2019-03-06T10:51:33.465Z,1.73
2019-03-06T10:54:03.750Z,1.17
2019-03-06T10:56:34.024Z,1.20
2019-03-06T10:59:05.802Z,1.20
2019-03-06T11:01:36.226Z,1.10
2019-03-06T11:04:24.795Z,1.20
2019-03-06T11:06:55.547Z,1.20
2019-03-06T11:09:26.722Z,1.23
2019-03-06T11:11:57.245Z,0.90
2019-03-06T11:14:27.670Z,1.20
2019-03-06T11:16:59.021Z,1.20
2019-03-06T11:19:30.877Z,1.03
2019-03-06T11:22:03.147Z,1.20
2019-03-06T11:24:34.674Z,1.20
2019-03-06T11:27:05.490Z,0.90
2019-03-06T11:29:36.021Z,0.80
2019-03-06T11:32:07.720Z,0.70
2019-03-06T11:34:38.130Z,0.70
2019-03-06T11:37:08.472Z,0.80
2019-03-06T11:39:38.656Z,0.60
2019-03-06T11:42:09.618Z,0.77
2019-03-06T11:44:40.042Z,0.90
2019-03-06T11:47:10.286Z,0.90
2019-03-06T11:56:22.096Z,1.20
2019-03-06T11:58:54.257Z,1.00
2019-03-06T12:01:28.174Z,0.63
2019-03-06T12:03:59.440Z,0.80
2019-03-06T12:06:32.577Z,1.00
2019-03-06T12:09:04.369Z,0.70
2019-03-06T12:11:38.823Z,0.70
2019-03-06T12:14:09.904Z,0.60
2019-03-06T12:16:42.011Z,0.60
2019-03-06T12:19:12.292Z,0.50
2019-03-06T12:21:43.785Z,0.80
2019-03-06T12:24:16.967Z,0.87
2019-03-06T12:26:57.760Z,0.70
2019-03-06T12:29:27.980Z,0.80
2019-03-06T12:31:58.383Z,0.80
2019-03-06T12:34:29.050Z,0.90
2019-03-06T12:36:59.491Z,0.57
2019-03-06T12:39:32.000Z,0.97
2019-03-06T12:42:02.653Z,0.63
2019-03-06T12:44:32.845Z,0.57
2019-03-06T12:47:03.161Z,0.50
2019-03-06T12:49:33.406Z,0.67
2019-03-06T12:52:03.696Z,0.73
2019-03-06T12:54:33.835Z,0.63
2019-03-06T12:57:05.114Z,0.60
2019-03-06T12:59:35.304Z,0.50
2019-03-06T13:02:06.082Z,0.50
2019-03-06T13:04:36.602Z,0.50
2019-03-06T13:07:07.828Z,0.72
2019-03-06T13:09:38.034Z,0.60
2019-03-06T13:12:08.620Z,0.60
2019-03-06T13:14:40.885Z,0.50
2019-03-06T13:17:11.208Z,0.50
2019-03-06T13:19:42.621Z,0.80
2019-03-06T13:22:12.793Z,0.60
2019-03-06T13:24:43.725Z,0.80
2019-03-06T13:27:14.069Z,0.65
2019-03-06T13:29:45.544Z,0.65
2019-03-06T13:32:16.261Z,0.80
2019-03-06T13:34:51.716Z,0.60
2019-03-06T13:37:26.045Z,0.80
2019-03-06T13:39:59.088Z,0.80
2019-03-06T13:42:29.765Z,0.72
2019-03-06T13:44:59.884Z,0.60
2019-03-06T13:47:32.346Z,0.70
2019-03-06T13:50:02.622Z,0.73
2019-03-06T13:52:33.170Z,0.90
2019-03-06T13:55:03.711Z,1.00
2019-03-06T13:57:34.084Z,1.20
2019-03-06T14:00:04.535Z,1.40
2019-03-06T14:02:37.212Z,0.87
2019-03-06T14:05:07.638Z,1.10
2019-03-06T14:07:37.793Z,1.30
2019-03-06T14:10:08.221Z,1.07
2019-03-06T14:12:38.386Z,1.43
2019-03-06T14:15:10.336Z,1.13
2019-03-06T14:17:41.603Z,1.33
2019-03-06T14:20:18.340Z,1.53
2019-03-06T14:22:48.897Z,1.10
2019-03-06T14:25:19.222Z,1.60
2019-03-06T14:27:49.812Z,1.33
2019-03-06T14:30:20.602Z,2.53
2019-03-06T14:32:51.275Z,1.63
2019-03-06T14:35:21.500Z,4.60
2019-03-06T14:37:52.882Z,4.20
2019-03-06T14:40:28.586Z,3.87
2019-03-06T14:42:59.088Z,3.90
2019-03-06T14:45:29.554Z,4.07
2019-03-06T14:48:00.828Z,3.40
2019-03-06T14:50:31.331Z,2.20
2019-03-06T14:53:02.076Z,2.27
2019-03-06T14:57:57.041Z,2.30
2019-03-06T15:00:27.417Z,1.77
2019-03-06T15:02:59.579Z,1.70
2019-03-06T15:05:31.537Z,1.90
2019-03-06T15:08:01.996Z,2.03
2019-03-06T15:10:42.502Z,1.60
2019-03-06T15:13:08.374Z,1.73
2019-03-06T15:15:38.507Z,1.70
2019-03-06T15:18:10.980Z,2.37
2019-03-06T15:20:44.451Z,2.07
2019-03-06T15:23:14.758Z,2.00
2019-03-06T15:25:45.161Z,1.87
2019-03-06T15:28:15.388Z,1.90
2019-03-06T15:30:46.290Z,2.30
2019-03-06T15:33:16.647Z,3.47
2019-03-06T15:35:46.976Z,3.37
2019-03-06T15:38:17.287Z,2.00
2019-03-06T15:40:47.400Z,1.97
2019-03-06T15:43:19.685Z,2.23
2019-03-06T15:45:49.890Z,1.73
2019-03-06T15:48:20.789Z,1.77
2019-03-06T15:50:50.933Z,1.97
2019-03-06T15:53:24.522Z,2.60
2019-03-06T15:55:53.099Z,1.65
2019-03-06T15:58:23.919Z,1.50
2019-03-06T16:01:04.555Z,1.90
2019-03-06T16:03:36.471Z,1.90
2019-03-06T16:06:07.408Z,2.10
2019-03-06T16:08:37.801Z,2.17
2019-03-06T16:11:08.542Z,3.87
2019-03-06T16:13:39.316Z,1.80
2019-03-06T16:16:09.675Z,2.03
2019-03-06T16:18:42.652Z,2.70
2019-03-06T16:21:13.511Z,3.03
2019-03-06T16:23:43.851Z,2.87
2019-03-06T16:26:14.369Z,1.83
2019-03-06T16:28:46.453Z,1.90
2019-03-06T16:31:17.401Z,2.87
2019-03-06T16:33:53.287Z,2.00
2019-03-06T16:36:25.889Z,2.07
2019-03-06T16:38:59.119Z,2.60
2019-03-06T16:41:29.267Z,2.37
2019-03-06T16:44:08.816Z,3.30
2019-03-06T16:46:39.090Z,2.77
2019-03-06T16:49:09.528Z,2.50
2019-03-06T16:51:41.619Z,3.20
2019-03-06T16:54:12.003Z,3.17
2019-03-06T16:56:45.455Z,2.23
2019-03-06T16:59:15.937Z,3.07
2019-03-06T17:01:51.248Z,3.40
2019-03-06T17:04:21.495Z,3.13
2019-03-06T17:06:51.858Z,2.20
2019-03-06T17:09:22.946Z,2.43
2019-03-06T17:11:53.774Z,2.80
2019-03-06T17:14:28.779Z,3.60
2019-03-06T17:17:03.489Z,5.33
2019-03-06T17:19:33.720Z,4.70
2019-03-06T17:22:04.222Z,3.13
2019-03-06T17:24:34.473Z,2.07
2019-03-06T17:27:04.741Z,2.87
2019-03-06T17:29:35.028Z,4.47
2019-03-06T17:32:07.484Z,3.30
2019-03-06T17:34:38.952Z,4.67
2019-03-06T17:37:09.334Z,3.30
2019-03-06T17:39:42.547Z,2.93
2019-03-06T17:42:15.083Z,4.03
2019-03-06T17:44:45.602Z,3.50
2019-03-06T17:47:16.073Z,4.77
2019-03-06T17:49:48.169Z,3.63
2019-03-06T17:52:19.578Z,3.27
2019-03-06T17:54:53.336Z,3.03
2019-03-06T17:57:23.633Z,3.30
2019-03-06T17:59:53.969Z,3.27
2019-03-06T18:02:30.107Z,2.70
2019-03-06T18:05:00.486Z,2.13
2019-03-06T18:07:32.388Z,2.40
2019-03-06T18:10:02.818Z,2.60
2019-03-06T18:12:37.542Z,2.47
2019-03-06T18:15:11.377Z,3.20
2019-03-06T18:17:41.966Z,3.57
2019-03-06T18:20:13.940Z,3.17
2019-03-06T18:22:44.378Z,3.17
2019-03-06T18:25:16.087Z,3.70
2019-03-06T18:27:46.592Z,2.97
2019-03-06T18:30:17.653Z,4.58
2019-03-06T18:32:47.909Z,3.25
2019-03-06T18:35:18.356Z,2.80
2019-03-06T18:37:48.517Z,3.33
2019-03-06T18:40:18.823Z,3.70
2019-03-06T18:42:49.872Z,2.83
2019-03-06T18:45:23.994Z,2.70
2019-03-06T18:47:54.186Z,2.50
2019-03-06T18:50:24.464Z,2.70
2019-03-06T18:52:54.747Z,3.07
2019-03-06T18:55:26.367Z,2.77
2019-03-06T18:57:56.770Z,3.20
2019-03-06T19:00:35.414Z,2.43
2019-03-06T19:03:06.113Z,2.57
2019-03-06T19:05:37.061Z,2.60
2019-03-06T19:08:08.908Z,3.92
2019-03-06T19:10:39.448Z,2.37
2019-03-06T19:13:09.842Z,3.43
2019-03-06T19:15:40.183Z,2.77
2019-03-06T19:18:10.929Z,28.63
2019-03-06T19:20:41.169Z,5.23
2019-03-06T19:23:13.366Z,3.58
2019-03-06T19:25:44.259Z,4.60
2019-03-06T19:28:14.718Z,4.40
2019-03-06T19:30:45.026Z,3.60
2019-03-06T19:33:15.584Z,3.50
2019-03-06T19:35:46.242Z,4.07
2019-03-06T19:38:16.607Z,3.40
2019-03-06T19:40:49.694Z,4.27
2019-03-06T19:43:20.271Z,5.70
2019-03-06T19:45:52.313Z,4.87
2019-03-06T19:48:22.870Z,4.20
2019-03-06T19:50:53.446Z,4.40
2019-03-06T19:53:23.738Z,4.07
2019-03-06T19:55:54.065Z,4.17
2019-03-06T19:58:27.538Z,4.83
2019-03-06T20:00:58.288Z,4.87
2019-03-06T20:03:29.089Z,5.10
2019-03-06T20:05:59.494Z,4.70
2019-03-06T20:08:29.938Z,5.20
2019-03-06T20:11:00.394Z,4.70
2019-03-06T20:13:30.898Z,4.20
2019-03-06T20:16:03.077Z,5.30
2019-03-06T20:18:33.313Z,5.40
2019-03-06T20:21:03.681Z,4.80
2019-03-06T20:23:34.377Z,5.60
2019-03-06T20:26:13.633Z,5.10
2019-03-06T20:28:37.020Z,4.73
2019-03-06T20:31:07.502Z,4.70
2019-03-06T20:33:38.412Z,4.53
2019-03-06T20:36:09.055Z,5.10
2019-03-06T20:38:39.475Z,4.90
2019-03-06T20:41:10.873Z,4.87
2019-03-06T20:43:41.311Z,4.70
2019-03-06T20:46:11.598Z,4.50
2019-03-06T20:48:42.005Z,4.97
2019-03-06T20:51:12.602Z,6.20
2019-03-06T20:53:42.917Z,5.33
2019-03-06T20:56:14.240Z,5.10
2019-03-06T20:58:44.688Z,5.10
2019-03-06T21:01:15.395Z,4.77
2019-03-06T21:03:45.875Z,4.83
2019-03-06T21:06:16.232Z,4.90
2019-03-06T21:08:46.909Z,5.53
2019-03-06T21:11:17.205Z,4.73
2019-03-06T21:13:47.569Z,4.70
2019-03-06T21:16:18.039Z,5.03
2019-03-06T21:18:51.424Z,5.47
2019-03-06T21:21:22.008Z,4.80
2019-03-06T21:23:52.230Z,5.60
2019-03-06T21:26:25.955Z,5.07
2019-03-06T21:28:56.393Z,5.70
2019-03-06T21:31:27.782Z,5.87
2019-03-06T21:33:59.544Z,6.10
2019-03-06T21:36:30.003Z,5.10
2019-03-06T21:39:02.275Z,5.63
2019-03-06T21:41:34.411Z,5.40
2019-03-06T21:44:04.791Z,5.17
2019-03-06T21:46:39.236Z,5.80
2019-03-06T21:49:10.567Z,5.70
2019-03-06T21:51:40.822Z,5.70
2019-03-06T21:54:13.794Z,6.00
2019-03-06T21:56:46.313Z,6.50
2019-03-06T21:59:16.641Z,5.50
2019-03-06T22:01:47.186Z,5.47
2019-03-06T22:04:17.733Z,4.77
2019-03-06T22:06:48.270Z,4.50
2019-03-06T22:09:18.972Z,5.27
2019-03-06T22:11:49.303Z,5.90
2019-03-06T22:14:21.186Z,4.80
2019-03-06T22:16:51.639Z,5.00
2019-03-06T22:19:23.174Z,5.17
2019-03-06T22:21:53.807Z,4.92
2019-03-06T22:24:24.004Z,4.40
2019-03-06T22:26:56.005Z,4.33
2019-03-06T22:29:26.448Z,4.90
2019-03-06T22:31:56.891Z,4.43
2019-03-06T22:34:27.739Z,3.90
2019-03-06T22:36:57.928Z,4.27
2019-03-06T22:39:28.161Z,4.13
2019-03-06T22:41:58.631Z,4.17
2019-03-06T22:44:28.883Z,3.87
2019-03-06T22:46:59.098Z,4.30
2019-03-06T22:49:32.669Z,4.50
2019-03-06T22:52:03.046Z,4.50
2019-03-06T22:54:39.827Z,4.20
2019-03-06T22:57:10.316Z,4.83
2019-03-06T22:59:41.618Z,4.17
2019-03-06T23:02:11.923Z,4.83
2019-03-06T23:04:42.287Z,4.20
2019-03-06T23:07:12.415Z,4.47
2019-03-06T23:09:42.551Z,4.83
2019-03-06T23:12:12.803Z,4.50
2019-03-06T23:14:43.022Z,5.33
2019-03-06T23:17:13.172Z,5.20
2019-03-06T23:19:45.060Z,4.47
2019-03-06T23:22:17.157Z,4.03
2019-03-06T23:24:48.807Z,5.47
2019-03-06T23:27:19.389Z,3.40
2019-03-06T23:29:49.668Z,3.87
2019-03-06T23:32:19.884Z,3.60
2019-03-06T23:34:50.292Z,3.10
2019-03-06T23:37:20.521Z,3.57
2019-03-06T23:39:51.599Z,3.63
2019-03-06T23:42:21.758Z,3.73
2019-03-06T23:44:51.984Z,3.70
2019-03-06T23:47:22.359Z,4.13
2019-03-06T23:49:52.464Z,3.70
2019-03-06T23:52:28.044Z,3.20
2019-03-06T23:54:58.377Z,3.63
2019-03-06T23:57:28.683Z,3.67
2019-03-06T23:59:58.814Z,3.53
